createdAt,value
2022-10-27T00:01:09.682Z,21.02
2022-10-27T00:04:13.821Z,21.01
2022-10-27T00:07:18.121Z,20.97
2022-10-27T00:10:20.837Z,20.98
2022-10-27T00:13:23.131Z,20.95
2022-10-27T00:16:26.457Z,20.92
2022-10-27T00:19:28.707Z,20.92
2022-10-27T00:22:31.414Z,20.90
2022-10-27T00:25:34.023Z,20.87
2022-10-27T00:29:06.914Z,20.85
2022-10-27T00:32:09.373Z,20.87
2022-10-27T00:35:12.028Z,20.83
2022-10-27T00:38:13.968Z,20.83
2022-10-27T00:41:29.759Z,20.78
2022-10-27T00:44:33.891Z,20.77
2022-10-27T00:47:37.459Z,20.77
2022-10-27T00:50:39.967Z,20.74
2022-10-27T00:53:43.371Z,20.76
2022-10-27T00:56:47.771Z,20.74
2022-10-27T00:59:50.321Z,20.74
2022-10-27T01:02:53.700Z,20.74
2022-10-27T01:05:58.803Z,20.70
2022-10-27T01:09:01.251Z,20.70
2022-10-27T01:12:03.937Z,20.67
2022-10-27T01:15:07.733Z,20.67
2022-10-27T01:18:10.731Z,20.67
2022-10-27T01:22:01.642Z,20.66
2022-10-27T01:25:30.825Z,20.66
2022-10-27T01:28:45.175Z,20.64
2022-10-27T01:31:52.041Z,20.63
2022-10-27T01:35:03.898Z,20.63
2022-10-27T01:38:18.042Z,20.61
2022-10-27T01:41:35.168Z,20.60
2022-10-27T01:44:44.175Z,20.56
2022-10-27T01:47:46.785Z,20.56
2022-10-27T01:51:01.234Z,20.57
2022-10-27T01:54:07.006Z,20.54
2022-10-27T01:57:29.450Z,20.56
2022-10-27T02:00:58.946Z,20.56
2022-10-27T02:04:31.143Z,20.53
2022-10-27T02:07:56.503Z,20.53
2022-10-27T02:11:03.504Z,20.51
2022-10-27T02:14:07.867Z,20.48
2022-10-27T02:17:13.168Z,20.48
2022-10-27T02:20:23.217Z,20.48
2022-10-27T02:23:26.799Z,20.46
2022-10-27T02:26:43.418Z,20.44
2022-10-27T02:29:48.954Z,20.46
2022-10-27T02:32:51.837Z,20.46
2022-10-27T02:35:57.342Z,20.44
2022-10-27T02:38:59.613Z,20.44
2022-10-27T02:42:04.671Z,20.39
2022-10-27T02:45:07.375Z,20.41
2022-10-27T02:48:09.750Z,20.40
2022-10-27T02:51:12.910Z,20.41
2022-10-27T02:54:16.628Z,20.41
2022-10-27T02:57:19.780Z,20.37
2022-10-27T03:00:22.219Z,20.37
2022-10-27T03:03:25.926Z,20.36
2022-10-27T03:06:28.504Z,20.36
2022-10-27T03:09:30.967Z,20.33
2022-10-27T03:12:33.809Z,20.32
2022-10-27T03:15:36.570Z,20.33
2022-10-27T03:18:38.915Z,20.32
2022-10-27T03:21:41.353Z,20.32
2022-10-27T03:24:43.679Z,20.30
2022-10-27T03:27:45.764Z,20.32
2022-10-27T03:30:49.366Z,20.32
2022-10-27T03:33:51.312Z,20.30
2022-10-27T03:36:53.745Z,20.27
2022-10-27T03:39:56.235Z,20.27
2022-10-27T03:42:59.163Z,20.25
2022-10-27T03:46:01.825Z,20.26
2022-10-27T03:49:04.201Z,20.26
2022-10-27T03:52:06.815Z,20.23
2022-10-27T03:55:09.460Z,20.26
2022-10-27T03:58:17.039Z,20.23
2022-10-27T04:01:19.828Z,20.20
2022-10-27T04:04:22.457Z,20.23
2022-10-27T04:07:25.406Z,20.23
2022-10-27T04:10:28.339Z,20.22
2022-10-27T04:13:31.073Z,20.23
2022-10-27T04:16:33.219Z,20.22
2022-10-27T04:19:36.720Z,20.20
2022-10-27T04:22:40.071Z,20.19
2022-10-27T04:25:44.950Z,20.20
2022-10-27T04:28:47.056Z,20.19
2022-10-27T04:31:49.462Z,20.19
2022-10-27T04:34:52.355Z,20.20
2022-10-27T04:37:56.821Z,20.20
2022-10-27T04:41:02.465Z,20.19
2022-10-27T04:44:04.805Z,20.20
2022-10-27T04:47:06.895Z,20.20
2022-10-27T04:50:10.100Z,20.20
2022-10-27T04:53:12.568Z,20.17
2022-10-27T04:56:15.065Z,20.19
2022-10-27T04:59:17.161Z,20.19
2022-10-27T05:02:22.126Z,20.19
2022-10-27T05:05:26.105Z,20.16
2022-10-27T05:08:29.158Z,20.19
2022-10-27T05:11:31.489Z,20.16
2022-10-27T05:14:33.830Z,20.15
2022-10-27T05:17:36.505Z,20.16
2022-10-27T05:20:39.515Z,20.17
2022-10-27T05:23:45.356Z,20.13
2022-10-27T05:26:50.301Z,20.15
2022-10-27T05:29:52.799Z,20.12
2022-10-27T05:32:55.568Z,20.15
2022-10-27T05:35:58.042Z,20.13
2022-10-27T05:39:00.754Z,20.13
2022-10-27T05:42:02.975Z,20.10
2022-10-27T05:45:06.232Z,20.10
2022-10-27T05:48:10.652Z,20.10
2022-10-27T05:51:13.997Z,20.10
2022-10-27T05:54:18.957Z,20.09
2022-10-27T05:57:23.387Z,20.08
2022-10-27T06:00:28.736Z,20.09
2022-10-27T06:03:31.305Z,20.09
2022-10-27T06:06:33.981Z,20.08
2022-10-27T06:09:36.603Z,20.09
2022-10-27T06:12:38.697Z,20.06
2022-10-27T06:18:46.050Z,20.09
2022-10-27T06:21:48.520Z,20.09
2022-10-27T06:24:50.525Z,20.09
2022-10-27T06:27:54.169Z,20.10
2022-10-27T06:30:57.498Z,20.08
2022-10-27T06:34:00.231Z,20.08
2022-10-27T06:37:06.573Z,20.06
2022-10-27T06:40:12.436Z,20.02
2022-10-27T06:43:15.685Z,20.03
2022-10-27T06:46:19.605Z,20.13
2022-10-27T06:49:21.575Z,20.19
2022-10-27T06:52:23.913Z,20.17
2022-10-27T06:55:25.962Z,20.12
2022-10-27T06:58:28.656Z,20.06
2022-10-27T07:01:32.313Z,20.06
2022-10-27T07:04:35.315Z,20.05
2022-10-27T07:07:38.678Z,20.00
2022-10-27T07:10:42.312Z,20.05
2022-10-27T07:13:44.732Z,20.05
2022-10-27T07:16:47.056Z,20.03
2022-10-27T07:19:49.995Z,20.05
2022-10-27T07:22:52.833Z,20.03
2022-10-27T07:25:54.963Z,20.03
2022-10-27T07:28:57.412Z,20.05
2022-10-27T07:32:00.117Z,20.05
2022-10-27T07:35:03.719Z,20.05
2022-10-27T07:38:07.954Z,20.03
2022-10-27T07:41:10.667Z,20.06
2022-10-27T07:44:13.130Z,20.06
2022-10-27T07:47:15.706Z,20.08
2022-10-27T07:50:25.398Z,20.08
2022-10-27T07:53:30.505Z,20.08
2022-10-27T07:56:34.158Z,20.08
2022-10-27T07:59:37.146Z,20.06
2022-10-27T08:03:06.343Z,20.09
2022-10-27T08:06:09.155Z,20.12
2022-10-27T08:09:14.254Z,20.17
2022-10-27T08:12:20.509Z,20.26
2022-10-27T08:15:22.823Z,20.33
2022-10-27T08:18:25.371Z,20.40
2022-10-27T08:21:27.441Z,20.44
2022-10-27T08:24:30.397Z,20.50
2022-10-27T08:27:33.316Z,20.53
2022-10-27T08:30:39.519Z,20.56
2022-10-27T08:33:46.094Z,20.61
2022-10-27T08:36:48.344Z,20.68
2022-10-27T08:39:50.799Z,20.73
2022-10-27T08:43:32.027Z,20.77
2022-10-27T08:47:05.680Z,20.83
2022-10-27T08:50:22.231Z,20.90
2022-10-27T08:53:31.606Z,20.92
2022-10-27T08:56:41.967Z,20.99
2022-10-27T08:59:45.147Z,21.01
2022-10-27T09:03:12.225Z,21.01
2022-10-27T09:06:33.902Z,21.01
2022-10-27T09:09:53.035Z,21.04
2022-10-27T09:13:01.327Z,20.97
2022-10-27T09:16:12.651Z,20.91
2022-10-27T09:19:32.055Z,20.95
2022-10-27T09:22:41.996Z,20.90
2022-10-27T09:25:47.930Z,20.90
2022-10-27T09:28:56.585Z,20.90
2022-10-27T09:32:24.170Z,20.88
2022-10-27T09:35:31.112Z,20.88
2022-10-27T09:38:33.472Z,20.90
2022-10-27T09:41:36.731Z,20.87
2022-10-27T09:44:39.430Z,20.87
2022-10-27T09:47:44.915Z,20.88
2022-10-27T09:50:58.737Z,20.91
2022-10-27T09:54:03.993Z,20.90
2022-10-27T09:57:23.411Z,20.88
2022-10-27T10:00:28.624Z,20.88
2022-10-27T10:03:31.090Z,20.90
2022-10-27T10:06:59.756Z,20.87
2022-10-27T10:10:05.641Z,20.84
2022-10-27T10:13:15.374Z,20.85
2022-10-27T10:16:18.008Z,20.84
2022-10-27T10:19:24.884Z,20.84
2022-10-27T10:22:31.686Z,20.83
2022-10-27T10:25:42.587Z,20.84
2022-10-27T10:28:45.939Z,20.83
2022-10-27T10:31:49.904Z,20.84
2022-10-27T10:34:53.567Z,20.83
2022-10-27T10:37:56.133Z,20.83
2022-10-27T10:41:01.229Z,20.84
2022-10-27T10:44:15.422Z,20.83
2022-10-27T10:47:28.183Z,20.83
2022-10-27T10:50:34.349Z,20.84
2022-10-27T10:53:39.733Z,20.83
2022-10-27T10:56:44.141Z,20.84
2022-10-27T10:59:47.275Z,20.84
2022-10-27T11:03:03.707Z,20.85
2022-10-27T11:06:14.899Z,20.87
2022-10-27T11:09:17.322Z,20.85
2022-10-27T11:12:30.642Z,20.85
2022-10-27T11:15:43.132Z,20.87
2022-10-27T11:19:06.633Z,20.84
2022-10-27T11:22:23.838Z,20.88
2022-10-27T11:25:33.231Z,20.91
2022-10-27T11:29:14.079Z,20.92
2022-10-27T11:32:27.162Z,20.91
2022-10-27T11:35:38.208Z,20.94
2022-10-27T11:39:06.042Z,20.90
2022-10-27T11:42:44.342Z,20.94
2022-10-27T11:46:17.451Z,20.94
2022-10-27T11:50:14.182Z,20.95
2022-10-27T11:53:41.610Z,20.95
2022-10-27T12:01:19.183Z,20.95
2022-10-27T12:21:19.583Z,20.92
2022-10-27T12:25:09.833Z,20.92
2022-10-27T12:32:31.640Z,20.95
2022-10-27T12:35:37.183Z,20.90
2022-10-27T12:38:45.766Z,20.88
2022-10-27T12:41:48.295Z,20.91
2022-10-27T12:48:10.625Z,20.94
2022-10-27T12:51:36.211Z,20.98
2022-10-27T12:54:48.703Z,20.98
2022-10-27T12:57:57.775Z,20.98
2022-10-27T13:01:31.818Z,20.97
2022-10-27T13:04:48.207Z,20.99
2022-10-27T13:08:09.025Z,20.99
2022-10-27T13:11:34.804Z,21.02
2022-10-27T13:14:51.334Z,21.01
2022-10-27T13:18:15.877Z,21.01
2022-10-27T13:21:36.768Z,20.99
2022-10-27T13:24:51.405Z,21.01
2022-10-27T13:28:23.445Z,21.01
2022-10-27T13:31:27.370Z,21.02
2022-10-27T13:34:29.741Z,21.04
2022-10-27T13:37:50.189Z,21.02
2022-10-27T13:40:55.169Z,21.05
2022-10-27T13:43:58.319Z,21.05
2022-10-27T13:47:04.148Z,21.05
2022-10-27T13:50:33.490Z,21.07
2022-10-27T13:53:36.598Z,21.07
2022-10-27T13:56:39.925Z,21.07
2022-10-27T13:59:45.198Z,21.05
2022-10-27T14:03:19.841Z,21.08
2022-10-27T14:06:27.805Z,21.08
2022-10-27T14:09:36.410Z,21.05
2022-10-27T14:12:38.938Z,20.97
2022-10-27T14:15:41.256Z,21.04
2022-10-27T14:18:43.854Z,21.02
2022-10-27T14:21:54.535Z,21.07
2022-10-27T14:25:05.194Z,21.07
2022-10-27T14:28:20.471Z,21.05
2022-10-27T14:31:24.643Z,21.07
2022-10-27T14:34:27.297Z,21.18
2022-10-27T14:37:31.857Z,21.21
2022-10-27T14:40:38.585Z,21.24
2022-10-27T14:43:44.032Z,21.22
2022-10-27T14:46:49.829Z,21.25
2022-10-27T14:50:03.668Z,21.31
2022-10-27T14:53:06.137Z,21.37
2022-10-27T14:56:20.095Z,21.38
2022-10-27T14:59:27.865Z,21.42
2022-10-27T15:02:31.010Z,21.45
2022-10-27T15:05:46.694Z,21.48
2022-10-27T15:08:55.740Z,21.50
2022-10-27T15:12:00.942Z,21.55
2022-10-27T15:18:46.271Z,21.62
2022-10-27T15:21:58.750Z,21.63
2022-10-27T15:25:04.027Z,21.70
2022-10-27T15:28:10.933Z,21.69
2022-10-27T15:31:22.968Z,21.72
2022-10-27T15:34:46.002Z,21.66
2022-10-27T15:41:55.424Z,21.53
2022-10-27T15:59:33.383Z,21.39
2022-10-27T16:03:09.355Z,21.38
2022-10-27T16:06:36.092Z,21.34
2022-10-27T16:10:08.371Z,21.34
2022-10-27T16:13:49.276Z,21.28
2022-10-27T16:16:54.068Z,21.29
2022-10-27T16:20:01.935Z,21.24
2022-10-27T16:23:11.177Z,21.25
2022-10-27T16:26:14.513Z,21.21
2022-10-27T16:29:20.399Z,21.22
2022-10-27T16:32:23.177Z,21.24
2022-10-27T16:35:27.555Z,21.21
2022-10-27T16:38:29.701Z,21.18
2022-10-27T16:41:32.188Z,21.17
2022-10-27T16:44:34.589Z,21.15
2022-10-27T16:47:36.955Z,21.14
2022-10-27T16:50:39.740Z,21.12
2022-10-27T16:54:51.510Z,21.12
2022-10-27T16:57:59.935Z,21.09
2022-10-27T17:02:12.244Z,21.08
2022-10-27T17:10:17.121Z,21.05
2022-10-27T17:13:40.727Z,21.07
2022-10-27T17:17:13.140Z,21.01
2022-10-27T17:20:31.387Z,21.04
2022-10-27T17:24:01.896Z,21.01
2022-10-27T17:27:13.695Z,20.99
2022-10-27T17:31:25.680Z,20.99
2022-10-27T17:37:55.929Z,21.01
2022-10-27T17:41:13.799Z,20.99
2022-10-27T17:44:16.116Z,20.98
2022-10-27T17:47:18.496Z,20.92
2022-10-27T17:50:20.821Z,20.95
2022-10-27T17:53:23.237Z,20.95
2022-10-27T17:56:31.977Z,20.92
2022-10-27T17:59:37.268Z,20.90
2022-10-27T18:02:39.956Z,20.90
2022-10-27T18:05:42.179Z,20.90
2022-10-27T18:09:13.514Z,20.87
2022-10-27T18:12:26.225Z,20.87
2022-10-27T18:15:36.291Z,20.85
2022-10-27T18:18:41.343Z,20.87
2022-10-27T18:21:47.742Z,20.85
2022-10-27T18:25:11.050Z,20.84
2022-10-27T18:28:13.604Z,20.85
2022-10-27T18:31:19.679Z,20.83
2022-10-27T18:34:22.862Z,20.87
2022-10-27T18:37:25.802Z,20.92
2022-10-27T18:40:28.081Z,20.95
2022-10-27T18:43:30.394Z,21.04
2022-10-27T18:46:32.953Z,21.05
2022-10-27T18:49:48.014Z,21.09
2022-10-27T18:52:50.882Z,21.17
2022-10-27T18:55:53.998Z,21.21
2022-10-27T18:58:58.686Z,21.24
2022-10-27T19:02:01.254Z,21.25
2022-10-27T19:05:04.305Z,21.28
2022-10-27T19:08:06.438Z,21.32
2022-10-27T19:11:14.832Z,21.38
2022-10-27T19:14:17.824Z,21.45
2022-10-27T19:17:20.616Z,21.48
2022-10-27T19:20:22.999Z,21.53
2022-10-27T19:23:26.254Z,21.56
2022-10-27T19:26:31.086Z,21.58
2022-10-27T19:29:33.978Z,21.58
2022-10-27T19:32:36.265Z,21.62
2022-10-27T19:35:38.713Z,21.53
2022-10-27T19:38:41.431Z,21.49
2022-10-27T19:41:43.991Z,21.43
2022-10-27T19:44:46.193Z,21.38
2022-10-27T19:47:48.678Z,21.35
2022-10-27T19:50:50.997Z,21.32
2022-10-27T19:53:56.862Z,21.34
2022-10-27T19:56:59.045Z,21.31
2022-10-27T20:00:07.973Z,21.28
2022-10-27T20:03:11.856Z,21.28
2022-10-27T20:06:16.365Z,21.25
2022-10-27T20:09:23.116Z,21.22
2022-10-27T20:12:29.661Z,21.28
2022-10-27T20:15:32.119Z,21.35
2022-10-27T20:18:34.802Z,21.43
2022-10-27T20:21:37.122Z,21.49
2022-10-27T20:24:39.936Z,21.53
2022-10-27T20:27:42.420Z,21.52
2022-10-27T20:30:44.878Z,21.60
2022-10-27T20:33:47.209Z,21.60
2022-10-27T20:36:49.891Z,21.65
2022-10-27T20:40:20.817Z,21.65
2022-10-27T20:43:29.234Z,21.67
2022-10-27T20:46:33.392Z,21.70
2022-10-27T20:49:36.077Z,21.79
2022-10-27T20:55:43.462Z,21.83
2022-10-27T20:58:46.246Z,21.88
2022-10-27T21:01:49.064Z,21.89
2022-10-27T21:04:52.440Z,21.90
2022-10-27T21:07:55.206Z,21.92
2022-10-27T21:10:57.346Z,21.92
2022-10-27T21:14:05.809Z,21.96
2022-10-27T21:17:11.494Z,21.94
2022-10-27T21:20:14.152Z,21.94
2022-10-27T21:23:16.990Z,21.99
2022-10-27T21:26:20.867Z,21.97
2022-10-27T21:29:23.288Z,21.99
2022-10-27T21:32:27.239Z,22.00
2022-10-27T21:35:30.384Z,22.00
2022-10-27T21:38:37.859Z,22.03
2022-10-27T21:41:39.993Z,22.07
2022-10-27T21:44:42.585Z,22.13
2022-10-27T21:47:44.751Z,22.10
2022-10-27T21:50:47.763Z,22.09
2022-10-27T21:54:01.606Z,22.07
2022-10-27T21:57:05.038Z,22.09
2022-10-27T22:00:07.929Z,22.07
2022-10-27T22:03:10.316Z,22.04
2022-10-27T22:06:24.054Z,22.06
2022-10-27T22:09:26.832Z,22.07
2022-10-27T22:12:28.835Z,22.12
2022-10-27T22:15:31.193Z,22.16
2022-10-27T22:18:33.894Z,22.10
2022-10-27T22:21:39.362Z,21.99
2022-10-27T22:24:41.479Z,21.94
2022-10-27T22:27:44.107Z,21.89
2022-10-27T22:30:46.223Z,21.85
2022-10-27T22:33:49.811Z,21.80
2022-10-27T22:36:52.195Z,21.75
2022-10-27T22:39:54.758Z,21.75
2022-10-27T22:42:57.229Z,21.73
2022-10-27T22:45:59.992Z,21.70
2022-10-27T22:49:04.779Z,21.67
2022-10-27T22:52:07.817Z,21.67
2022-10-27T22:55:10.346Z,21.66
2022-10-27T22:58:12.701Z,21.63
2022-10-27T23:01:21.305Z,21.62
2022-10-27T23:04:24.019Z,21.60
2022-10-27T23:07:26.075Z,21.56
2022-10-27T23:10:28.482Z,21.53
2022-10-27T23:13:33.434Z,21.50
2022-10-27T23:16:36.587Z,21.46
2022-10-27T23:19:38.725Z,21.46
2022-10-27T23:22:41.330Z,21.45
2022-10-27T23:25:43.305Z,21.43
2022-10-27T23:28:55.660Z,21.41
2022-10-27T23:31:57.959Z,21.38
2022-10-27T23:35:00.573Z,21.37
2022-10-27T23:38:03.499Z,21.38
2022-10-27T23:41:06.124Z,21.35
2022-10-27T23:44:08.404Z,21.34
2022-10-27T23:47:11.030Z,21.34
2022-10-27T23:50:13.301Z,21.29
2022-10-27T23:53:15.888Z,21.29
2022-10-27T23:56:18.990Z,21.28
2022-10-27T23:59:21.459Z,21.27
